Time;durP1;ratioP1;P1;durP2;ratioP2;P2;SDS_P1;SDS_P2;PMS_P1;PMS_P2;Temp;Humidity;BMP_temperature;BMP_pressure;BME280_temperature;BME280_humidity;BME280_pressure;Samples;Min_cycle;Max_cycle;Signal;HPM_P1;HPM_P2
2021/09/22 00:02:16;;;;;;;10.25;7.07;;;10.80;99.90;;;;;;4901093;29;20136;-79
2021/09/22 00:04:43;;;;;;;9.57;6.75;;;10.80;99.90;;;;;;4900652;29;20574;-79
2021/09/22 00:07:10;;;;;;;9.90;6.97;;;10.80;99.90;;;;;;4900777;29;20049;-78
2021/09/22 00:09:37;;;;;;;9.30;6.53;;;10.80;99.90;;;;;;4899926;29;20148;-78
2021/09/22 00:12:05;;;;;;;8.88;6.50;;;10.80;99.90;;;;;;4900735;29;20143;-78
2021/09/22 00:14:32;;;;;;;9.30;6.85;;;10.80;99.90;;;;;;4900217;29;20139;-78
2021/09/22 00:17:01;;;;;;;11.98;7.07;;;10.80;99.90;;;;;;4900894;29;20484;-79
2021/09/22 00:19:29;;;;;;;10.05;6.57;;;10.80;99.90;;;;;;4900440;29;20135;-78
2021/09/22 00:21:56;;;;;;;8.63;6.65;;;10.80;99.90;;;;;;4900479;29;20455;-79
2021/09/22 00:24:23;;;;;;;10.25;7.10;;;10.70;99.90;;;;;;4900618;29;20123;-78
2021/09/22 00:26:50;;;;;;;11.25;6.90;;;10.70;99.90;;;;;;4900530;29;20492;-79
2021/09/22 00:29:17;;;;;;;9.13;6.40;;;10.60;99.90;;;;;;4900716;29;20127;-79
2021/09/22 00:31:45;;;;;;;8.75;6.30;;;10.60;99.90;;;;;;4901409;29;20143;-79
2021/09/22 00:34:12;;;;;;;8.88;6.22;;;10.50;99.90;;;;;;4900810;29;20537;-80
2021/09/22 00:36:40;;;;;;;9.05;6.60;;;10.50;99.90;;;;;;4903521;29;20119;-77
2021/09/22 00:39:07;;;;;;;8.88;6.55;;;10.50;99.90;;;;;;4903108;29;20135;-78
2021/09/22 00:41:34;;;;;;;8.32;6.30;;;10.50;99.90;;;;;;4903373;29;20104;-78
2021/09/22 00:44:01;;;;;;;9.27;6.55;;;10.50;99.90;;;;;;4902030;29;20080;-76
2021/09/22 00:46:29;;;;;;;9.82;6.68;;;10.50;99.90;;;;;;4900049;29;20108;-79
2021/09/22 00:48:56;;;;;;;9.35;6.57;;;10.50;99.90;;;;;;4899967;29;20108;-79
2021/09/22 00:51:23;;;;;;;9.07;6.60;;;10.50;99.90;;;;;;4899835;29;20088;-77
2021/09/22 00:53:52;;;;;;;8.90;6.00;;;10.50;99.90;;;;;;4900499;29;20135;-80
2021/09/22 00:56:22;;;;;;;9.63;6.82;;;10.50;99.90;;;;;;4900145;29;20139;-80
2021/09/22 00:58:49;;;;;;;10.27;6.53;;;10.50;99.90;;;;;;4900833;29;20141;-81
2021/09/22 01:01:16;;;;;;;9.38;6.22;;;10.50;99.90;;;;;;4899864;29;20117;-79
2021/09/22 01:03:45;;;;;;;9.30;6.32;;;10.50;99.90;;;;;;4899531;29;20526;-77
2021/09/22 01:06:16;;;;;;;9.88;6.70;;;10.50;99.90;;;;;;4899628;29;20058;-79
2021/09/22 01:08:46;;;;;;;8.90;6.20;;;10.50;99.90;;;;;;4900292;29;20406;-80
2021/09/22 01:11:15;;;;;;;9.05;6.47;;;10.40;99.90;;;;;;4899794;29;20476;-79
2021/09/22 01:13:43;;;;;;;9.43;6.75;;;10.40;99.90;;;;;;4899817;29;20044;-78
2021/09/22 01:16:10;;;;;;;8.75;6.30;;;10.30;99.90;;;;;;4899998;29;20052;-80
2021/09/22 01:18:37;;;;;;;8.48;6.18;;;10.30;99.90;;;;;;4899340;29;20583;-79
2021/09/22 01:21:04;;;;;;;10.00;6.53;;;10.20;99.90;;;;;;4899933;29;20048;-78
2021/09/22 01:23:33;;;;;;;9.20;6.07;;;10.30;99.90;;;;;;4892754;29;20136;-77
2021/09/22 01:26:00;;;;;;;10.32;6.88;;;10.30;99.90;;;;;;4899761;29;20064;-79
2021/09/22 01:28:30;;;;;;;9.20;6.80;;;10.20;99.90;;;;;;4899452;29;20135;-78
2021/09/22 01:31:02;;;;;;;11.13;7.35;;;10.20;99.90;;;;;;4899641;29;20471;-77
2021/09/22 01:33:29;;;;;;;9.50;6.68;;;10.20;99.90;;;;;;4899332;29;20048;-78
2021/09/22 01:35:56;;;;;;;10.60;6.70;;;10.20;99.90;;;;;;4899525;29;20151;-80
2021/09/22 01:38:25;;;;;;;9.80;6.70;;;10.10;99.90;;;;;;4899318;29;20063;-78
2021/09/22 01:41:00;;;;;;;10.68;7.18;;;10.10;99.90;;;;;;4899547;29;20057;-79
2021/09/22 01:43:29;;;;;;;8.98;6.60;;;10.10;99.90;;;;;;4899510;29;20562;-80
2021/09/22 01:45:57;;;;;;;9.15;6.50;;;10.10;99.90;;;;;;4899583;29;20056;-77
2021/09/22 01:48:26;;;;;;;9.57;6.82;;;10.00;99.90;;;;;;4898947;29;20076;-79
2021/09/22 01:50:54;;;;;;;10.05;7.13;;;10.10;99.90;;;;;;4899472;29;20101;-79
2021/09/22 01:53:21;;;;;;;12.05;7.03;;;10.10;99.90;;;;;;4899032;29;20048;-79
2021/09/22 01:55:48;;;;;;;9.40;6.88;;;10.10;99.90;;;;;;4898342;29;20135;-80
2021/09/22 01:58:17;;;;;;;10.77;7.20;;;10.10;99.90;;;;;;4898888;29;20135;-79
2021/09/22 02:00:44;;;;;;;11.00;7.10;;;10.00;99.90;;;;;;4899021;29;20052;-79
2021/09/22 02:03:11;;;;;;;9.63;7.07;;;10.00;99.90;;;;;;4898294;29;20632;-80
2021/09/22 02:05:38;;;;;;;9.57;6.68;;;9.90;99.90;;;;;;4899055;29;20080;-76
2021/09/22 02:08:06;;;;;;;10.90;6.63;;;9.80;99.90;;;;;;4898657;29;20499;-77
2021/09/22 02:10:34;;;;;;;9.77;6.95;;;9.70;99.90;;;;;;4899071;29;20132;-79
2021/09/22 02:13:01;;;;;;;9.77;6.85;;;9.70;99.90;;;;;;4899368;29;20052;-78
2021/09/22 02:15:30;;;;;;;9.38;6.88;;;9.70;99.90;;;;;;4898670;29;20132;-79
2021/09/22 02:17:57;;;;;;;10.38;6.68;;;9.60;99.90;;;;;;4899042;29;20053;-77
2021/09/22 02:20:24;;;;;;;9.68;6.75;;;9.60;99.90;;;;;;4898646;29;20135;-80
2021/09/22 02:22:52;;;;;;;10.35;7.05;;;9.60;99.90;;;;;;4898679;29;20617;-78
2021/09/22 02:25:20;;;;;;;11.27;7.13;;;9.50;99.90;;;;;;4890227;29;20049;-80
2021/09/22 02:27:47;;;;;;;9.73;7.05;;;9.60;99.90;;;;;;4890768;29;20135;-78
2021/09/22 02:30:17;;;;;;;10.07;6.72;;;9.60;99.90;;;;;;4897905;29;20140;-78
2021/09/22 02:32:46;;;;;;;12.63;7.60;;;9.60;99.90;;;;;;4898118;29;20131;-77
2021/09/22 02:35:14;;;;;;;10.80;7.35;;;9.70;99.90;;;;;;4897939;29;20055;-79
2021/09/22 02:37:42;;;;;;;10.30;7.25;;;9.70;99.90;;;;;;4897965;29;20554;-79
2021/09/22 02:40:16;;;;;;;9.80;7.15;;;9.70;99.90;;;;;;4897796;29;20048;-79
2021/09/22 02:42:45;;;;;;;10.13;7.05;;;9.60;99.90;;;;;;4898116;29;20104;-78
2021/09/22 02:45:14;;;;;;;11.98;7.20;;;9.60;99.90;;;;;;4897568;29;20527;-79
2021/09/22 02:47:41;;;;;;;13.00;7.57;;;9.60;99.90;;;;;;4897864;29;20076;-80
2021/09/22 02:50:13;;;;;;;10.88;7.30;;;9.50;99.90;;;;;;4897817;29;20131;-80
2021/09/22 02:52:41;;;;;;;10.07;7.00;;;9.50;99.90;;;;;;4898200;29;20096;-79
2021/09/22 02:55:09;;;;;;;10.60;6.90;;;9.40;99.90;;;;;;4897662;29;20083;-78
2021/09/22 02:57:36;;;;;;;11.10;7.43;;;9.40;99.90;;;;;;4897731;29;20064;-76
2021/09/22 03:00:05;;;;;;;10.50;6.82;;;9.40;99.90;;;;;;4897596;29;20120;-75
2021/09/22 03:02:32;;;;;;;10.63;7.32;;;9.40;99.90;;;;;;4889406;29;20052;-78
2021/09/22 03:04:59;;;;;;;11.63;7.60;;;9.40;99.90;;;;;;4896028;29;20151;-79
2021/09/22 03:07:27;;;;;;;10.82;7.47;;;9.40;99.90;;;;;;4895256;29;20076;-79
2021/09/22 03:09:54;;;;;;;11.43;7.10;;;9.40;99.90;;;;;;4894831;29;20048;-77
2021/09/22 03:12:21;;;;;;;10.70;7.20;;;9.40;99.90;;;;;;4895347;29;20067;-78
2021/09/22 03:14:49;;;;;;;10.38;7.13;;;9.40;99.90;;;;;;4895392;29;20056;-78
2021/09/22 03:17:16;;;;;;;11.90;7.47;;;9.40;99.90;;;;;;4895024;29;20065;-78
2021/09/22 03:19:43;;;;;;;10.23;7.38;;;9.40;99.90;;;;;;4895161;29;20087;-79
2021/09/22 03:22:10;;;;;;;10.23;7.18;;;9.40;99.90;;;;;;4895035;29;20064;-80
2021/09/22 03:24:38;;;;;;;11.23;7.47;;;9.40;99.90;;;;;;4888862;29;20076;-79
2021/09/22 03:27:05;;;;;;;9.77;7.10;;;9.40;99.90;;;;;;4894859;29;20071;-78
2021/09/22 03:29:32;;;;;;;10.15;7.30;;;9.50;99.90;;;;;;4895296;29;20340;-79
2021/09/22 03:32:00;;;;;;;9.68;7.20;;;9.50;99.90;;;;;;4895236;29;20152;-79
2021/09/22 03:34:27;;;;;;;10.27;7.38;;;9.50;99.90;;;;;;4894704;29;20483;-78
2021/09/22 03:36:54;;;;;;;10.73;7.57;;;9.50;99.90;;;;;;4895205;29;20135;-78
2021/09/22 03:39:21;;;;;;;11.80;7.38;;;9.50;99.90;;;;;;4894828;29;20571;-78
2021/09/22 03:41:49;;;;;;;10.70;7.50;;;9.50;99.90;;;;;;4895065;29;20057;-79
2021/09/22 03:44:16;;;;;;;10.50;7.20;;;9.50;99.90;;;;;;4894684;29;20139;-76
2021/09/22 03:46:43;;;;;;;12.23;7.57;;;9.50;99.90;;;;;;4895125;29;20147;-76
2021/09/22 03:49:10;;;;;;;10.68;7.20;;;9.50;99.90;;;;;;4894977;29;20143;-78
2021/09/22 03:51:38;;;;;;;11.65;7.57;;;9.50;99.90;;;;;;4894783;29;20127;-79
2021/09/22 03:54:05;;;;;;;10.55;7.43;;;9.50;99.90;;;;;;4894721;29;20049;-79
2021/09/22 03:56:32;;;;;;;11.45;7.38;;;9.50;99.90;;;;;;4895025;29;20787;-79
2021/09/22 03:59:01;;;;;;;10.50;7.22;;;9.50;99.90;;;;;;4894872;29;20143;-77
2021/09/22 04:01:28;;;;;;;12.05;7.10;;;9.50;99.90;;;;;;4895405;29;20041;-79
2021/09/22 04:03:55;;;;;;;11.20;7.00;;;9.50;99.90;;;;;;4897091;29;20479;-79
2021/09/22 04:06:22;;;;;;;9.65;6.88;;;9.50;99.90;;;;;;4896923;29;20053;-80
2021/09/22 04:08:50;;;;;;;9.82;6.70;;;9.50;99.90;;;;;;4897470;29;20131;-78
2021/09/22 04:11:17;;;;;;;11.25;7.00;;;9.40;99.90;;;;;;4897027;29;20044;-78
2021/09/22 04:13:45;;;;;;;9.90;7.15;;;9.40;99.90;;;;;;4896749;29;20048;-79
2021/09/22 04:16:13;;;;;;;9.45;6.45;;;9.40;99.90;;;;;;4896748;29;20055;-80
2021/09/22 04:18:41;;;;;;;10.52;6.95;;;9.40;99.90;;;;;;4899040;29;20087;-78
2021/09/22 04:21:08;;;;;;;10.80;6.95;;;9.30;99.90;;;;;;4900348;29;20139;-77
2021/09/22 04:23:35;;;;;;;11.45;7.28;;;9.30;99.90;;;;;;4900551;29;20470;-78
2021/09/22 04:26:02;;;;;;;10.05;6.88;;;9.30;99.90;;;;;;4900061;29;21927;-76
2021/09/22 04:28:30;;;;;;;9.57;6.47;;;9.20;99.90;;;;;;4900321;29;20131;-79
2021/09/22 04:30:57;;;;;;;9.00;6.65;;;9.10;99.90;;;;;;4900560;29;20414;-75
2021/09/22 04:33:25;;;;;;;10.35;7.28;;;9.10;99.90;;;;;;4900140;29;21316;-79
2021/09/22 04:35:55;;;;;;;10.80;7.03;;;9.00;99.90;;;;;;4900377;29;20080;-79
2021/09/22 04:38:22;;;;;;;10.32;7.15;;;9.00;99.90;;;;;;4899807;29;20048;-79
2021/09/22 04:40:50;;;;;;;11.43;7.35;;;9.00;99.90;;;;;;4900245;29;20127;-79
2021/09/22 04:43:17;;;;;;;10.40;7.20;;;9.00;99.90;;;;;;4899937;29;20127;-77
2021/09/22 04:45:45;;;;;;;10.95;6.95;;;9.00;99.90;;;;;;4900110;29;20140;-79
2021/09/22 04:48:13;;;;;;;11.98;7.55;;;9.00;99.90;;;;;;4899673;29;20048;-80
2021/09/22 04:50:42;;;;;;;10.60;6.85;;;9.00;99.90;;;;;;4899774;29;20088;-78
2021/09/22 04:53:09;;;;;;;10.82;6.72;;;9.00;99.90;;;;;;4899837;29;20140;-79
2021/09/22 04:55:36;;;;;;;10.00;7.10;;;9.00;99.90;;;;;;4899615;29;20140;-80
2021/09/22 04:58:04;;;;;;;10.68;6.53;;;8.90;99.90;;;;;;4899597;29;20139;-78
2021/09/22 05:00:31;;;;;;;10.50;7.03;;;8.90;99.90;;;;;;4892578;29;20132;-78
2021/09/22 05:02:58;;;;;;;12.50;7.55;;;8.90;99.90;;;;;;4899661;29;20139;-79
2021/09/22 05:05:26;;;;;;;11.90;7.43;;;8.90;99.90;;;;;;4899158;29;20151;-77
2021/09/22 05:07:54;;;;;;;9.35;6.70;;;8.90;99.90;;;;;;4899507;29;20139;-77
2021/09/22 05:10:21;;;;;;;9.93;6.88;;;9.00;99.90;;;;;;4899027;29;20410;-80
2021/09/22 05:12:48;;;;;;;11.23;6.97;;;8.90;99.90;;;;;;4899397;29;20080;-80
2021/09/22 05:15:15;;;;;;;12.15;7.38;;;8.90;99.90;;;;;;4897683;29;20048;-81
2021/09/22 05:17:42;;;;;;;11.63;7.70;;;8.90;99.90;;;;;;4899202;29;20087;-81
2021/09/22 05:20:11;;;;;;;10.85;7.40;;;8.90;99.90;;;;;;4899446;29;20128;-78
2021/09/22 05:22:38;;;;;;;11.05;7.75;;;8.80;99.90;;;;;;4899696;29;20090;-79
2021/09/22 05:25:08;;;;;;;10.60;7.28;;;8.80;99.90;;;;;;4897868;29;20463;-80
2021/09/22 05:27:35;;;;;;;11.55;7.30;;;8.80;99.90;;;;;;4901233;29;20131;-79
2021/09/22 05:30:03;;;;;;;11.05;7.60;;;8.70;99.90;;;;;;4885344;29;20483;-81
2021/09/22 05:32:30;;;;;;;11.52;7.65;;;8.70;99.90;;;;;;4892309;29;20132;-81
2021/09/22 05:34:57;;;;;;;11.57;7.70;;;8.70;99.90;;;;;;4889662;29;20077;-79
2021/09/22 05:37:26;;;;;;;10.45;7.45;;;8.60;99.90;;;;;;4888287;29;20391;-79
2021/09/22 05:39:54;;;;;;;11.35;7.53;;;8.50;99.90;;;;;;4883249;29;20554;-78
2021/09/22 05:42:22;;;;;;;12.10;7.70;;;8.40;99.90;;;;;;4890962;29;20498;-79
2021/09/22 05:44:49;;;;;;;12.73;8.30;;;8.40;99.90;;;;;;4897257;29;20144;-79
2021/09/22 05:47:16;;;;;;;10.93;6.68;;;8.30;99.90;;;;;;4888623;29;20507;-80
2021/09/22 05:49:43;;;;;;;11.55;7.75;;;8.30;99.90;;;;;;4885031;29;20132;-80
2021/09/22 05:52:10;;;;;;;12.20;7.78;;;8.30;99.90;;;;;;4886985;29;20475;-79
2021/09/22 05:54:37;;;;;;;10.93;7.80;;;8.30;99.90;;;;;;4880980;29;20570;-81
2021/09/22 05:57:05;;;;;;;12.10;7.40;;;8.40;99.90;;;;;;4887113;29;20127;-81
2021/09/22 05:59:34;;;;;;;10.73;7.45;;;8.40;99.90;;;;;;4880498;29;20551;-81
2021/09/22 06:02:01;;;;;;;12.70;7.25;;;8.50;99.90;;;;;;4882065;29;20137;-81
2021/09/22 06:04:28;;;;;;;11.52;7.30;;;8.50;99.90;;;;;;4894803;29;20075;-81
2021/09/22 06:06:55;;;;;;;11.10;7.78;;;8.50;99.90;;;;;;4885365;29;20145;-81
2021/09/22 06:09:22;;;;;;;12.32;7.75;;;8.60;99.90;;;;;;4881405;29;20176;-79
2021/09/22 06:11:49;;;;;;;13.98;8.40;;;8.50;99.90;;;;;;4895401;29;20127;-80
2021/09/22 06:14:16;;;;;;;10.73;7.75;;;8.50;99.90;;;;;;4898297;29;20048;-80
2021/09/22 06:16:45;;;;;;;10.25;7.32;;;8.50;99.90;;;;;;4898076;29;20143;-80
2021/09/22 06:19:12;;;;;;;10.80;7.75;;;8.50;99.90;;;;;;4898341;29;20143;-80
2021/09/22 06:21:39;;;;;;;10.55;7.53;;;8.50;99.90;;;;;;4898111;29;20478;-79
2021/09/22 06:24:07;;;;;;;12.00;7.63;;;8.50;99.90;;;;;;4894847;29;20409;-80
2021/09/22 06:26:35;;;;;;;10.60;7.43;;;8.60;99.90;;;;;;4883715;29;20411;-78
2021/09/22 06:29:02;;;;;;;13.77;7.95;;;8.60;99.90;;;;;;4881205;29;20092;-80
2021/09/22 06:31:29;;;;;;;11.07;7.57;;;8.70;99.90;;;;;;4892105;29;20454;-79
2021/09/22 06:33:57;;;;;;;11.27;7.68;;;8.80;99.90;;;;;;4880428;29;20533;-79
2021/09/22 06:36:24;;;;;;;10.95;7.57;;;8.90;99.90;;;;;;4880676;29;20135;-79
2021/09/22 06:38:52;;;;;;;14.45;8.38;;;9.00;99.90;;;;;;4886430;29;20136;-78
2021/09/22 06:41:19;;;;;;;12.35;7.88;;;9.00;99.90;;;;;;4883196;29;20411;-79
2021/09/22 06:43:46;;;;;;;11.88;7.90;;;9.10;99.90;;;;;;4892946;29;20495;-79
2021/09/22 06:46:13;;;;;;;11.05;7.70;;;9.20;99.90;;;;;;4882328;29;20470;-77
2021/09/22 06:48:40;;;;;;;11.70;7.93;;;9.30;99.90;;;;;;4880350;29;20410;-80
2021/09/22 06:51:10;;;;;;;11.85;8.20;;;9.40;99.90;;;;;;4886461;29;20069;-76
2021/09/22 06:53:39;;;;;;;12.85;8.32;;;9.40;99.90;;;;;;4883049;29;20048;-76
2021/09/22 06:56:07;;;;;;;14.10;8.40;;;9.50;99.90;;;;;;4882933;29;20053;-80
2021/09/22 06:58:34;;;;;;;12.45;8.50;;;9.60;99.90;;;;;;4892662;29;20566;-79
2021/09/22 07:01:01;;;;;;;14.35;9.27;;;9.70;99.90;;;;;;4897571;29;20080;-80
2021/09/22 07:03:28;;;;;;;15.18;9.95;;;9.70;99.90;;;;;;4897332;29;20577;-79
2021/09/22 07:05:55;;;;;;;14.82;9.10;;;9.80;99.90;;;;;;4897611;29;20056;-80
2021/09/22 07:08:25;;;;;;;13.23;8.95;;;9.90;99.90;;;;;;4897288;29;20056;-80
2021/09/22 07:10:52;;;;;;;15.25;9.25;;;9.90;99.90;;;;;;4897461;29;20562;-78
2021/09/22 07:13:20;;;;;;;13.50;9.00;;;9.90;99.90;;;;;;4897692;29;20542;-80
2021/09/22 07:15:48;;;;;;;12.80;8.68;;;10.00;99.90;;;;;;4897675;29;20052;-78
2021/09/22 07:18:18;;;;;;;12.93;8.88;;;10.00;99.90;;;;;;4897167;29;20116;-79
2021/09/22 07:20:45;;;;;;;13.75;8.77;;;10.10;99.90;;;;;;4897674;29;20124;-78
2021/09/22 07:23:12;;;;;;;13.52;9.38;;;10.10;99.90;;;;;;4897234;29;20112;-79
2021/09/22 07:25:41;;;;;;;13.68;9.38;;;10.10;99.90;;;;;;4897977;29;20173;-79
2021/09/22 07:28:08;;;;;;;13.73;9.10;;;10.20;99.90;;;;;;4897358;29;20136;-80
2021/09/22 07:30:36;;;;;;;13.70;9.80;;;10.20;99.90;;;;;;4897563;29;20672;-80
2021/09/22 07:33:06;;;;;;;15.10;10.05;;;10.20;99.90;;;;;;4897629;29;20132;-83
2021/09/22 07:35:33;;;;;;;14.50;9.60;;;10.20;99.90;;;;;;4893529;29;20056;-90
2021/09/22 07:38:01;;;;;;;14.95;9.93;;;10.30;99.90;;;;;;4928338;29;20052;-88
2021/09/22 07:40:29;;;;;;;15.77;10.52;;;10.40;99.90;;;;;;4900043;29;20044;-88
2021/09/22 07:42:58;;;;;;;15.77;11.10;;;10.40;99.90;;;;;;4899240;29;20080;-86
2021/09/22 07:45:27;;;;;;;17.13;11.80;;;10.40;99.90;;;;;;4896118;29;20048;-80
2021/09/22 07:47:54;;;;;;;18.25;11.85;;;10.50;99.90;;;;;;4897058;29;20503;-81
2021/09/22 07:50:21;;;;;;;18.50;12.52;;;10.60;99.90;;;;;;4897301;29;20135;-80
2021/09/22 07:52:49;;;;;;;16.35;11.23;;;10.70;99.90;;;;;;4898113;29;20128;-80
2021/09/22 07:55:17;;;;;;;15.73;10.32;;;10.80;99.90;;;;;;4901782;29;20045;-79
2021/09/22 07:57:44;;;;;;;14.85;9.90;;;10.90;99.90;;;;;;4901638;29;20123;-86
2021/09/22 08:00:15;;;;;;;15.00;10.30;;;10.90;99.90;;;;;;4906908;29;20542;-86
2021/09/22 08:02:43;;;;;;;14.80;10.77;;;11.00;99.90;;;;;;4913664;29;20053;-88
2021/09/22 08:05:11;;;;;;;14.90;10.13;;;11.10;99.90;;;;;;4896280;29;20103;-89
2021/09/22 08:07:38;;;;;;;15.70;11.05;;;11.20;99.90;;;;;;4903810;29;20148;-90
2021/09/22 08:10:07;;;;;;;16.38;10.68;;;11.30;99.90;;;;;;4905991;29;20044;-91
2021/09/22 08:12:34;;;;;;;18.60;10.80;;;11.30;99.90;;;;;;4904864;29;20135;-89
2021/09/22 08:15:05;;;;;;;18.85;12.57;;;11.40;99.90;;;;;;4908259;29;20064;-90
2021/09/22 08:17:34;;;;;;;20.05;12.82;;;11.40;99.90;;;;;;4905835;29;20084;-91
2021/09/22 08:20:01;;;;;;;19.75;12.48;;;11.50;99.90;;;;;;4903296;29;20131;-89
2021/09/22 08:22:28;;;;;;;17.85;12.45;;;11.50;99.90;;;;;;4899969;29;20052;-90
2021/09/22 08:24:55;;;;;;;20.80;12.82;;;11.60;99.90;;;;;;4901820;29;20079;-86
2021/09/22 08:27:23;;;;;;;16.80;11.57;;;11.70;99.90;;;;;;4900778;29;20076;-85
2021/09/22 08:29:50;;;;;;;17.38;11.95;;;11.80;99.90;;;;;;4901108;29;20048;-85
2021/09/22 08:32:17;;;;;;;16.25;11.07;;;11.80;99.90;;;;;;4901578;29;20045;-90
2021/09/22 08:34:46;;;;;;;16.98;11.75;;;11.90;99.90;;;;;;4904302;29;20084;-87
2021/09/22 08:37:13;;;;;;;15.80;11.25;;;12.00;99.90;;;;;;4902152;29;20099;-86
2021/09/22 08:39:40;;;;;;;15.55;10.90;;;12.00;99.90;;;;;;4901511;29;20149;-83
2021/09/22 08:42:07;;;;;;;16.08;10.55;;;12.10;99.90;;;;;;4900340;29;20131;-86
2021/09/22 08:44:34;;;;;;;14.38;10.50;;;12.20;99.90;;;;;;4896613;29;20144;-86
2021/09/22 08:47:02;;;;;;;16.60;10.90;;;12.20;99.90;;;;;;4890182;29;20131;-86
2021/09/22 08:49:30;;;;;;;14.63;10.40;;;12.30;99.90;;;;;;4898061;29;20052;-87
2021/09/22 08:51:59;;;;;;;16.25;10.35;;;12.40;99.90;;;;;;4897862;29;20053;-91
2021/09/22 08:54:26;;;;;;;13.60;9.90;;;12.50;99.90;;;;;;4903152;29;20079;-91
2021/09/22 08:56:53;;;;;;;13.57;10.27;;;12.60;99.90;;;;;;4912222;29;20057;-87
2021/09/22 08:59:21;;;;;;;13.70;9.88;;;12.70;99.90;;;;;;4902489;29;20080;-91
2021/09/22 09:02:09;;;;;;;14.25;10.30;;;12.80;99.90;;;;;;4900343;29;20510;-79
2021/09/22 09:04:39;;;;;;;15.13;10.20;;;12.90;99.90;;;;;;4897720;29;20131;-81
2021/09/22 09:07:08;;;;;;;16.80;10.90;;;13.00;99.90;;;;;;4900468;29;20203;-77
2021/09/22 09:09:37;;;;;;;13.18;9.57;;;13.10;99.90;;;;;;4900776;29;20143;-78
2021/09/22 09:12:17;;;;;;;13.10;9.48;;;13.20;99.90;;;;;;4900824;29;20055;-78
2021/09/22 09:14:52;;;;;;;14.75;8.80;;;13.20;99.80;;;;;;4900625;29;20076;-79
2021/09/22 09:17:36;;;;;;;;;;;13.30;99.60;;;;;;4900108;29;20048;-81
2021/09/22 09:20:23;;;;;;;12.75;9.52;;;13.40;99.30;;;;;;4897071;29;19931;-79
2021/09/22 09:23:12;;;;;;;15.60;10.25;;;13.50;99.10;;;;;;4903275;29;20059;-81
2021/09/22 09:25:43;;;;;;;15.55;10.73;;;13.50;98.70;;;;;;4903636;29;20057;-84
2021/09/22 09:28:19;;;;;;;14.77;10.23;;;13.50;98.40;;;;;;4901585;29;20076;-84
2021/09/22 09:30:49;;;;;;;14.35;10.50;;;13.60;98.10;;;;;;4898171;29;20579;-79
2021/09/22 09:33:40;;;;;;;14.48;9.80;;;13.60;98.30;;;;;;4898507;29;20143;-79
2021/09/22 09:36:24;;;;;;;15.13;10.65;;;13.70;98.20;;;;;;4905356;29;20171;-80
2021/09/22 09:38:57;;;;;;;13.77;9.98;;;13.80;98.00;;;;;;4899375;29;20056;-80
2021/09/22 09:41:30;;;;;;;14.20;10.10;;;13.80;98.00;;;;;;4900605;29;20156;-80
2021/09/22 09:43:57;;;;;;;15.18;11.00;;;13.90;97.90;;;;;;4900090;29;20164;-80
2021/09/22 09:46:28;;;;;;;16.40;10.55;;;13.90;97.70;;;;;;4898571;29;20139;-83
2021/09/22 09:49:03;;;;;;;15.23;10.85;;;14.00;97.60;;;;;;4898881;29;20143;-81
2021/09/22 09:51:41;;;;;;;12.52;9.70;;;14.10;97.30;;;;;;4892102;29;20506;-79
2021/09/22 09:54:17;;;;;;;13.48;9.23;;;14.20;97.20;;;;;;4899409;29;20151;-78
2021/09/22 09:56:45;;;;;;;12.52;8.40;;;14.20;96.70;;;;;;4898209;29;20140;-77
2021/09/22 09:59:13;;;;;;;10.85;8.38;;;14.40;96.40;;;;;;4897971;29;20123;-79
2021/09/22 10:01:44;;;;;;;10.70;8.15;;;14.40;95.60;;;;;;4898734;29;20486;-78
2021/09/22 10:04:14;;;;;;;11.48;7.38;;;14.50;95.20;;;;;;4898640;29;20140;-79
2021/09/22 10:06:42;;;;;;;10.93;7.57;;;14.60;95.00;;;;;;4899380;29;20139;-79
2021/09/22 10:09:13;;;;;;;12.25;9.05;;;14.60;94.90;;;;;;4899182;29;20452;-80
2021/09/22 10:11:45;;;;;;;13.98;8.25;;;14.70;94.80;;;;;;4926241;29;20057;-79
2021/09/22 10:14:13;;;;;;;10.40;7.93;;;14.70;94.80;;;;;;4893859;29;20052;-79
2021/09/22 10:16:42;;;;;;;11.30;7.80;;;14.80;94.80;;;;;;4895424;29;20064;-79
2021/09/22 10:19:11;;;;;;;10.93;7.78;;;14.90;94.90;;;;;;4895257;29;20084;-79
2021/09/22 10:21:38;;;;;;;11.45;8.00;;;14.90;94.50;;;;;;4896252;29;20152;-79
2021/09/22 10:24:11;;;;;;;10.43;7.47;;;15.00;94.50;;;;;;4918976;29;20095;-82
2021/09/22 10:26:39;;;;;;;10.55;7.60;;;15.10;94.20;;;;;;4900770;29;20127;-80
2021/09/22 10:29:28;;;;;;;10.15;7.20;;;15.20;94.10;;;;;;4896434;29;20090;-81
2021/09/22 10:31:57;;;;;;;9.60;6.60;;;15.20;93.70;;;;;;4896128;29;20113;-79
2021/09/22 10:34:34;;;;;;;11.48;6.90;;;15.30;93.60;;;;;;4917693;29;20167;-79
2021/09/22 10:37:03;;;;;;;10.30;7.03;;;15.30;93.50;;;;;;4894797;29;20056;-79
2021/09/22 10:39:45;;;;;;;9.30;7.00;;;15.40;93.40;;;;;;4896189;29;20491;-79
2021/09/22 10:42:29;;;;;;;8.55;6.28;;;15.50;92.70;;;;;;4881314;29;20518;-79
2021/09/22 10:45:18;;;;;;;9.80;6.68;;;15.50;92.80;;;;;;4888514;29;20498;-79
2021/09/22 10:47:46;;;;;;;8.68;6.10;;;15.60;92.10;;;;;;4883771;29;20136;-78
2021/09/22 10:50:47;;;;;;;9.13;5.53;;;15.60;92.30;;;;;;4881093;29;20144;-79
2021/09/22 10:53:37;;;;;;;8.98;5.80;;;15.70;92.60;;;;;;4884845;29;20497;-79
2021/09/22 10:56:09;;;;;;;9.15;4.65;;;15.70;92.30;;;;;;4888558;29;20052;-79
2021/09/22 10:58:43;;;;;;;8.52;5.18;;;15.80;92.50;;;;;;4909275;29;20078;-79
2021/09/22 11:01:10;;;;;;;10.82;5.15;;;15.90;92.40;;;;;;4895403;29;20139;-79
2021/09/22 11:03:56;;;;;;;8.57;5.75;;;15.90;92.30;;;;;;4898621;29;20056;-81
2021/09/22 11:07:06;;;;;;;7.22;5.70;;;16.00;91.90;;;;;;4897291;29;20072;-80
2021/09/22 11:09:36;;;;;;;7.80;5.28;;;16.00;91.80;;;;;;4888209;29;20491;-78
2021/09/22 11:12:13;;;;;;;7.93;5.10;;;16.10;91.90;;;;;;4898955;29;20049;-80
2021/09/22 11:14:57;;;;;;;7.82;5.18;;;16.20;92.10;;;;;;4892397;29;20112;-79
2021/09/22 11:17:29;;;;;;;8.93;5.57;;;16.20;91.40;;;;;;4897731;29;20123;-79
2021/09/22 11:19:59;;;;;;;5.82;3.88;;;16.30;91.00;;;;;;4898254;29;20049;-79
2021/09/22 11:22:29;;;;;;;6.03;3.83;;;16.30;91.20;;;;;;4897088;29;20080;-80
2021/09/22 11:24:59;;;;;;;5.50;3.60;;;16.40;91.30;;;;;;4899850;29;20132;-80
2021/09/22 11:27:29;;;;;;;5.28;3.67;;;16.50;91.30;;;;;;4900475;29;20082;-79
2021/09/22 11:30:00;;;;;;;5.60;3.50;;;16.50;91.10;;;;;;4905494;29;20048;-77
2021/09/22 11:32:34;;;;;;;5.85;3.92;;;16.60;90.90;;;;;;4901344;29;20040;-79
2021/09/22 11:35:06;;;;;;;5.40;3.70;;;16.70;90.10;;;;;;4901714;29;20092;-78
2021/09/22 11:37:37;;;;;;;5.65;3.10;;;16.80;90.00;;;;;;4900944;29;20087;-76
2021/09/22 11:40:16;;;;;;;6.85;3.75;;;16.90;90.60;;;;;;4900516;29;20063;-76
2021/09/22 11:43:01;;;;;;;5.10;3.10;;;17.00;90.10;;;;;;4901596;29;20131;-79
2021/09/22 11:45:35;;;;;;;4.28;2.78;;;17.10;88.60;;;;;;4901947;29;20056;-78
2021/09/22 11:48:02;;;;;;;4.05;2.35;;;17.20;88.50;;;;;;4900890;29;20558;-79
2021/09/22 11:50:35;;;;;;;4.95;2.47;;;17.30;88.50;;;;;;4899927;29;20135;-79
2021/09/22 11:53:02;;;;;;;5.82;2.80;;;17.40;88.50;;;;;;4901170;29;20061;-78
2021/09/22 11:55:30;;;;;;;4.75;2.65;;;17.50;87.30;;;;;;4901996;29;20052;-77
2021/09/22 11:58:04;;;;;;;3.67;2.08;;;17.60;86.80;;;;;;4919998;29;20134;-77
2021/09/22 12:00:31;;;;;;;3.78;2.00;;;17.70;87.10;;;;;;4890727;29;20083;-78
2021/09/22 12:02:58;;;;;;;3.40;1.80;;;17.80;86.10;;;;;;4901579;29;20044;-80
2021/09/22 12:05:27;;;;;;;4.00;2.10;;;18.00;86.00;;;;;;4902043;29;20131;-78
2021/09/22 12:07:55;;;;;;;3.75;1.98;;;18.10;85.70;;;;;;4901285;29;20059;-77
2021/09/22 12:10:24;;;;;;;3.10;1.90;;;18.20;86.30;;;;;;4917296;29;20051;-78
2021/09/22 12:12:52;;;;;;;4.07;2.10;;;18.30;84.80;;;;;;4912494;29;20044;-78
2021/09/22 12:15:23;;;;;;;4.45;2.55;;;18.40;83.70;;;;;;4901494;29;20072;-78
2021/09/22 12:17:51;;;;;;;3.28;1.90;;;18.60;83.50;;;;;;4901340;29;20156;-79
2021/09/22 12:20:19;;;;;;;3.33;1.60;;;18.70;82.00;;;;;;4919125;29;20060;-78
2021/09/22 12:22:59;;;;;;;3.30;1.67;;;18.80;82.00;;;;;;4903576;29;20494;-78
2021/09/22 12:25:26;;;;;;;3.03;1.60;;;18.90;81.50;;;;;;4900756;29;20135;-76
2021/09/22 12:27:53;;;;;;;3.42;1.88;;;18.90;80.30;;;;;;4899994;29;20044;-78
2021/09/22 12:30:30;;;;;;;3.63;2.00;;;19.00;79.40;;;;;;4899042;29;20088;-79
2021/09/22 12:32:59;;;;;;;3.67;1.98;;;19.10;79.40;;;;;;4900568;29;20124;-78
2021/09/22 12:35:31;;;;;;;3.40;1.58;;;19.20;79.40;;;;;;4900717;29;20050;-79
2021/09/22 12:38:01;;;;;;;3.03;1.60;;;19.30;79.30;;;;;;4900197;29;20545;-79
2021/09/22 12:40:30;;;;;;;3.45;1.70;;;19.50;78.90;;;;;;4900531;29;20128;-81
2021/09/22 12:43:00;;;;;;;3.38;1.80;;;19.70;78.30;;;;;;4899854;29;20140;-79
2021/09/22 12:45:30;;;;;;;4.50;1.90;;;19.70;78.60;;;;;;4898729;29;20128;-80
2021/09/22 12:48:00;;;;;;;3.88;2.00;;;19.90;75.80;;;;;;4900389;29;20048;-80
2021/09/22 12:50:34;;;;;;;3.45;1.70;;;19.90;74.80;;;;;;4893062;29;20048;-79
2021/09/22 12:53:11;;;;;;;2.75;1.42;;;20.00;75.60;;;;;;4901204;29;20137;-82
2021/09/22 12:55:40;;;;;;;3.25;1.67;;;20.10;74.60;;;;;;4901527;29;20553;-81